Terminal Aerodrome Forecast
Issued by NWS

Home | Current Version | Previous Version | Text Only | Print | Product List | Glossary On
Versions: 1 2 3 4 5 6 7 8 9 10 11 12
000
FTUS45 KFGZ 212300
TAFPRC
TAF
KPRC 212336Z 2200/2224 32008KT P6SM BKN200
     FM220100 31005KT P6SM SCT200
     FM221800 32010KT P6SM FEW060 FEW200
     FM222000 32010G20KT P6SM FEW060 FEW200=

USA.gov is the U.S. government's official web portal to all federal, state and local government web resources and services.